createdAt,value
2017-12-11T00:00:38.250Z,4.03
2017-12-11T00:01:38.261Z,3.98
2017-12-11T00:02:38.277Z,4.03
2017-12-11T00:03:38.298Z,4.01
2017-12-11T00:04:38.304Z,4.04
2017-12-11T00:05:38.322Z,3.98
2017-12-11T00:06:38.335Z,3.97
2017-12-11T00:07:38.349Z,3.94
2017-12-11T00:08:38.391Z,4.08
2017-12-11T00:09:38.379Z,4.12
2017-12-11T00:10:38.392Z,4.15
2017-12-11T00:11:38.407Z,4.00
2017-12-11T00:12:38.423Z,4.01
2017-12-11T00:13:38.439Z,3.98
2017-12-11T00:14:38.451Z,4.07
2017-12-11T00:15:38.464Z,3.98
2017-12-11T00:16:38.483Z,4.07
2017-12-11T00:17:38.492Z,4.14
2017-12-11T00:18:38.509Z,4.04
2017-12-11T00:19:38.526Z,4.10
2017-12-11T00:20:38.547Z,4.12
2017-12-11T00:21:38.553Z,4.12
2017-12-11T00:22:38.564Z,4.01
2017-12-11T00:23:38.597Z,3.98
2017-12-11T00:24:38.594Z,4.08
2017-12-11T00:25:38.606Z,4.08
2017-12-11T00:26:38.624Z,4.06
2017-12-11T00:27:38.639Z,3.98
2017-12-11T00:28:38.652Z,4.04
2017-12-11T00:29:38.668Z,3.97
2017-12-11T00:30:38.714Z,3.82
2017-12-11T00:31:38.697Z,3.82
2017-12-11T00:32:38.711Z,3.88
2017-12-11T00:33:38.727Z,3.78
2017-12-11T00:34:38.749Z,3.71
2017-12-11T00:35:38.753Z,3.65
2017-12-11T00:36:38.767Z,3.62
2017-12-11T00:37:38.782Z,3.70
2017-12-11T00:38:38.795Z,3.62
2017-12-11T00:39:38.811Z,3.70
2017-12-11T00:40:38.838Z,3.62
2017-12-11T00:41:38.842Z,3.65
2017-12-11T00:42:38.899Z,3.64
2017-12-11T00:43:38.880Z,3.61
2017-12-11T00:44:38.885Z,3.61
2017-12-11T00:45:38.916Z,3.72
2017-12-11T00:46:38.913Z,3.62
2017-12-11T00:47:38.933Z,3.60
2017-12-11T00:48:38.941Z,3.54
2017-12-11T00:49:38.955Z,3.60
2017-12-11T00:50:38.969Z,3.54
2017-12-11T00:51:39.029Z,3.57
2017-12-11T00:52:38.998Z,3.60
2017-12-11T00:53:39.010Z,3.53
2017-12-11T00:54:39.054Z,3.39
2017-12-11T00:55:39.040Z,3.40
2017-12-11T00:56:39.055Z,3.34
2017-12-11T00:57:39.070Z,3.44
2017-12-11T00:58:39.086Z,3.31
2017-12-11T00:59:39.099Z,3.33
2017-12-11T01:00:39.112Z,3.27
2017-12-11T01:01:39.130Z,3.30
2017-12-11T01:02:39.139Z,3.31
2017-12-11T01:03:39.158Z,3.21
2017-12-11T01:04:39.168Z,3.20
2017-12-11T01:05:39.183Z,3.31
2017-12-11T01:06:39.192Z,3.28
2017-12-11T01:07:39.228Z,3.27
2017-12-11T01:08:39.226Z,3.24
2017-12-11T01:09:39.245Z,3.18
2017-12-11T01:10:39.258Z,3.28
2017-12-11T01:11:39.274Z,3.21
2017-12-11T01:12:39.284Z,3.16
2017-12-11T01:13:39.296Z,3.10
2017-12-11T01:14:39.315Z,3.16
2017-12-11T01:15:39.327Z,3.09
2017-12-11T01:16:39.337Z,3.09
2017-12-11T01:17:39.352Z,3.09
2017-12-11T01:18:39.369Z,3.03
2017-12-11T01:19:39.421Z,2.97
2017-12-11T01:20:39.399Z,2.98
2017-12-11T01:21:39.413Z,2.97
2017-12-11T01:22:39.428Z,2.85
2017-12-11T01:23:39.441Z,2.85
2017-12-11T01:24:39.454Z,2.84
2017-12-11T01:25:39.467Z,2.88
2017-12-11T01:26:39.482Z,2.89
2017-12-11T01:27:39.498Z,2.74
2017-12-11T01:28:39.511Z,2.73
2017-12-11T01:29:39.558Z,2.74
2017-12-11T01:30:39.538Z,2.77
2017-12-11T01:31:39.552Z,2.70
2017-12-11T01:32:39.563Z,2.74
2017-12-11T01:33:39.581Z,2.69
2017-12-11T01:34:39.595Z,2.66
2017-12-11T01:35:39.612Z,2.81
2017-12-11T01:36:39.622Z,2.73
2017-12-11T01:37:39.640Z,2.71
2017-12-11T01:38:39.655Z,2.69
2017-12-11T01:39:39.668Z,2.63
2017-12-11T01:40:39.733Z,2.63
2017-12-11T01:41:39.729Z,2.59
2017-12-11T01:42:39.712Z,2.69
2017-12-11T01:43:39.742Z,2.52
2017-12-11T01:44:39.744Z,2.63
2017-12-11T01:45:39.752Z,2.59
2017-12-11T01:46:39.765Z,2.61
2017-12-11T01:47:39.780Z,2.70
2017-12-11T01:48:39.794Z,2.61
2017-12-11T01:49:39.808Z,2.69
2017-12-11T01:50:39.822Z,2.63
2017-12-11T01:51:39.837Z,2.63
2017-12-11T01:52:39.850Z,2.49
2017-12-11T01:53:39.864Z,2.51
2017-12-11T01:54:39.911Z,2.55
2017-12-11T01:55:39.905Z,2.58
2017-12-11T01:56:39.920Z,2.52
2017-12-11T01:57:39.927Z,2.33
2017-12-11T01:58:39.939Z,2.44
2017-12-11T01:59:39.948Z,2.38
2017-12-11T02:00:39.965Z,2.35
2017-12-11T02:01:39.977Z,2.27
2017-12-11T02:02:39.990Z,2.27
2017-12-11T02:03:40.000Z,2.19
2017-12-11T02:04:40.017Z,2.22
2017-12-11T02:05:40.033Z,2.19
2017-12-11T02:06:40.046Z,2.20
2017-12-11T02:07:40.059Z,2.22
2017-12-11T02:08:40.081Z,2.33
2017-12-11T02:09:40.093Z,2.35
2017-12-11T02:10:40.098Z,2.41
2017-12-11T02:11:40.116Z,2.33
2017-12-11T02:12:40.130Z,2.44
2017-12-11T02:13:40.142Z,2.51
2017-12-11T02:14:40.158Z,2.53
2017-12-11T02:15:40.173Z,2.63
2017-12-11T02:16:40.184Z,2.64
2017-12-11T02:17:40.198Z,2.59
2017-12-11T02:18:40.209Z,2.58
2017-12-11T02:19:40.294Z,2.51
2017-12-11T02:20:40.274Z,2.55
2017-12-11T02:21:40.272Z,2.56
2017-12-11T02:22:40.268Z,2.59
2017-12-11T02:23:40.289Z,2.64
2017-12-11T02:24:40.302Z,2.77
2017-12-11T02:25:40.310Z,2.87
2017-12-11T02:26:40.328Z,2.84
2017-12-11T02:27:40.342Z,2.85
2017-12-11T02:28:40.357Z,2.89
2017-12-11T02:29:40.368Z,2.94
2017-12-11T02:30:40.384Z,2.87
2017-12-11T02:31:40.397Z,2.94
2017-12-11T02:32:40.407Z,2.91
2017-12-11T02:33:40.423Z,2.85
2017-12-11T02:34:40.439Z,2.84
2017-12-11T02:35:40.454Z,2.94
2017-12-11T02:36:40.466Z,2.94
2017-12-11T02:37:40.481Z,3.06
2017-12-11T02:38:40.494Z,3.03
2017-12-11T02:39:40.513Z,3.03
2017-12-11T02:40:40.521Z,3.10
2017-12-11T02:41:40.535Z,3.09
2017-12-11T02:42:40.551Z,3.13
2017-12-11T02:43:40.581Z,3.06
2017-12-11T02:44:40.582Z,3.12
2017-12-11T02:45:40.594Z,3.09
2017-12-11T02:46:40.608Z,3.20
2017-12-11T02:47:40.624Z,3.18
2017-12-11T02:48:40.636Z,3.10
2017-12-11T02:49:40.651Z,3.10
2017-12-11T02:50:40.672Z,3.09
2017-12-11T02:51:40.679Z,3.12
2017-12-11T02:52:40.694Z,3.15
2017-12-11T02:53:40.704Z,3.10
2017-12-11T02:54:40.720Z,3.12
2017-12-11T02:55:40.737Z,3.24
2017-12-11T02:56:40.778Z,3.24
2017-12-11T02:57:40.764Z,3.25
2017-12-11T02:58:40.782Z,3.24
2017-12-11T02:59:40.793Z,3.33
2017-12-11T03:00:40.806Z,3.46
2017-12-11T03:01:40.821Z,3.28
2017-12-11T03:02:40.836Z,3.42
2017-12-11T03:03:40.851Z,3.47
2017-12-11T03:04:40.866Z,3.46
2017-12-11T03:05:40.878Z,3.42
2017-12-11T03:06:40.893Z,3.42
2017-12-11T03:07:40.908Z,3.31
2017-12-11T03:08:40.921Z,3.31
2017-12-11T03:09:40.937Z,3.27
2017-12-11T03:10:40.953Z,3.34
2017-12-11T03:11:40.967Z,3.36
2017-12-11T03:12:40.978Z,3.44
2017-12-11T03:13:40.993Z,3.49
2017-12-11T03:14:41.010Z,3.44
2017-12-11T03:15:41.023Z,3.50
2017-12-11T03:16:41.035Z,3.49
2017-12-11T03:17:41.051Z,3.36
2017-12-11T03:18:41.064Z,3.16
2017-12-11T03:19:41.110Z,3.16
2017-12-11T03:20:41.094Z,3.07
2017-12-11T03:21:41.111Z,2.91
2017-12-11T03:22:41.124Z,2.91
2017-12-11T03:23:41.139Z,2.74
2017-12-11T03:24:41.153Z,2.77
2017-12-11T03:25:41.167Z,2.73
2017-12-11T03:26:41.180Z,2.70
2017-12-11T03:27:41.198Z,2.63
2017-12-11T03:28:41.213Z,2.51
2017-12-11T03:29:41.229Z,2.52
2017-12-11T03:30:41.234Z,2.34
2017-12-11T03:31:41.250Z,2.34
2017-12-11T03:32:41.266Z,2.35
2017-12-11T03:33:41.280Z,2.44
2017-12-11T03:34:41.297Z,2.35
2017-12-11T03:35:41.311Z,2.49
2017-12-11T03:36:41.325Z,2.48
2017-12-11T03:37:41.338Z,2.45
2017-12-11T03:38:41.352Z,2.46
2017-12-11T03:39:41.372Z,2.34
2017-12-11T03:40:41.383Z,2.30
2017-12-11T03:41:41.398Z,2.27
2017-12-11T03:42:41.415Z,2.22
2017-12-11T03:43:41.425Z,2.17
2017-12-11T03:44:41.439Z,2.12
2017-12-11T03:45:41.452Z,2.09
2017-12-11T03:46:41.468Z,2.12
2017-12-11T03:47:41.482Z,2.15
2017-12-11T03:48:41.494Z,2.15
2017-12-11T03:49:41.508Z,2.04
2017-12-11T03:50:41.524Z,2.09
2017-12-11T03:51:41.539Z,2.04
2017-12-11T03:52:41.549Z,2.06
2017-12-11T03:53:41.591Z,2.08
2017-12-11T03:54:41.583Z,2.16
2017-12-11T03:55:41.594Z,2.12
2017-12-11T03:56:41.605Z,2.12
2017-12-11T03:57:41.623Z,2.04
2017-12-11T03:58:41.636Z,2.01
2017-12-11T03:59:41.650Z,2.01
2017-12-11T04:00:41.665Z,2.09
2017-12-11T04:01:41.676Z,1.94
2017-12-11T04:02:41.692Z,1.98
2017-12-11T04:03:41.723Z,1.97
2017-12-11T04:04:41.719Z,2.01
2017-12-11T04:05:41.731Z,2.13
2017-12-11T04:06:41.749Z,2.06
2017-12-11T04:07:41.761Z,2.08
2017-12-11T04:08:41.783Z,2.15
2017-12-11T04:09:41.789Z,2.20
2017-12-11T04:10:41.803Z,2.31
2017-12-11T04:11:41.817Z,2.35
2017-12-11T04:12:41.831Z,2.23
2017-12-11T04:13:41.848Z,2.17
2017-12-11T04:14:41.857Z,2.08
2017-12-11T04:15:41.886Z,1.93
2017-12-11T04:16:41.880Z,1.94
2017-12-11T04:17:41.900Z,1.91
2017-12-11T04:18:41.913Z,1.83
2017-12-11T04:19:41.928Z,1.79
2017-12-11T04:20:41.938Z,1.75
2017-12-11T04:21:41.954Z,1.76
2017-12-11T04:22:41.969Z,1.72
2017-12-11T04:23:41.982Z,1.68
2017-12-11T04:24:41.997Z,1.62
2017-12-11T04:25:42.007Z,1.62
2017-12-11T04:26:42.027Z,1.60
2017-12-11T04:27:42.043Z,1.60
2017-12-11T04:28:42.050Z,1.62
2017-12-11T04:29:42.061Z,1.61
2017-12-11T04:30:42.080Z,1.61
2017-12-11T04:31:42.087Z,1.61
2017-12-11T04:32:42.143Z,1.58
2017-12-11T04:33:42.118Z,1.65
2017-12-11T04:34:42.130Z,1.57
2017-12-11T04:35:42.160Z,1.68
2017-12-11T04:36:42.153Z,1.54
2017-12-11T04:37:42.171Z,1.62
2017-12-11T04:38:42.203Z,1.51
2017-12-11T04:39:42.201Z,1.62
2017-12-11T04:40:42.211Z,1.40
2017-12-11T04:41:42.222Z,1.47
2017-12-11T04:42:42.236Z,1.46
2017-12-11T04:43:42.254Z,1.43
2017-12-11T04:44:42.264Z,1.51
2017-12-11T04:45:42.278Z,1.46
2017-12-11T04:46:42.289Z,1.51
2017-12-11T04:47:42.304Z,1.50
2017-12-11T04:48:42.317Z,1.50
2017-12-11T04:49:42.332Z,1.36
2017-12-11T04:50:42.344Z,1.43
2017-12-11T04:51:42.359Z,1.46
2017-12-11T04:52:42.370Z,1.43
2017-12-11T04:53:42.384Z,1.42
2017-12-11T04:54:42.396Z,1.47
2017-12-11T04:55:42.410Z,1.57
2017-12-11T04:56:42.434Z,1.60
2017-12-11T04:57:42.463Z,1.47
2017-12-11T04:58:42.452Z,1.52
2017-12-11T04:59:42.464Z,1.34
2017-12-11T05:00:42.475Z,1.40
2017-12-11T05:01:42.487Z,1.46
2017-12-11T05:02:42.502Z,1.52
2017-12-11T05:03:42.510Z,1.47
2017-12-11T05:04:42.529Z,1.58
2017-12-11T05:05:42.549Z,1.36
2017-12-11T05:06:42.555Z,1.42
2017-12-11T05:07:42.567Z,1.34
2017-12-11T05:08:42.581Z,1.43
2017-12-11T05:09:42.590Z,1.43
2017-12-11T05:10:42.610Z,1.34
2017-12-11T05:11:42.626Z,1.33
2017-12-11T05:12:42.639Z,1.33
2017-12-11T05:13:42.646Z,1.32
2017-12-11T05:14:42.657Z,1.33
2017-12-11T05:15:42.673Z,1.34
2017-12-11T05:16:42.688Z,1.36
2017-12-11T05:17:42.697Z,1.29
2017-12-11T05:18:42.713Z,1.33
2017-12-11T05:19:42.718Z,1.33
2017-12-11T05:20:42.734Z,1.32
2017-12-11T05:21:42.750Z,1.33
2017-12-11T05:22:42.780Z,1.32
2017-12-11T05:23:42.777Z,1.33
2017-12-11T05:24:42.786Z,1.29
2017-12-11T05:25:42.844Z,1.39
2017-12-11T05:26:42.814Z,1.54
2017-12-11T05:27:42.838Z,1.58
2017-12-11T05:28:42.842Z,1.42
2017-12-11T05:29:42.858Z,1.50
2017-12-11T05:30:42.868Z,1.37
2017-12-11T05:31:42.880Z,1.50
2017-12-11T05:32:42.892Z,1.51
2017-12-11T05:33:42.907Z,1.40
2017-12-11T05:34:42.927Z,1.36
2017-12-11T05:35:42.929Z,1.44
2017-12-11T05:36:42.941Z,1.40
2017-12-11T05:37:42.960Z,1.33
2017-12-11T05:38:42.973Z,1.42
2017-12-11T05:39:42.983Z,1.34
2017-12-11T05:40:42.996Z,1.33
2017-12-11T05:41:43.010Z,1.36
2017-12-11T05:42:43.022Z,1.39
2017-12-11T05:43:43.035Z,1.43
2017-12-11T05:44:43.090Z,1.43
2017-12-11T05:45:43.064Z,1.36
2017-12-11T05:46:43.077Z,1.34
2017-12-11T05:47:43.101Z,1.29
2017-12-11T05:48:43.095Z,1.28
2017-12-11T05:49:43.111Z,1.36
2017-12-11T05:50:43.128Z,1.29
2017-12-11T05:51:43.137Z,1.22
2017-12-11T05:52:43.150Z,1.15
2017-12-11T05:53:43.161Z,1.22
2017-12-11T05:54:43.176Z,1.25
2017-12-11T05:55:43.206Z,1.19
2017-12-11T05:56:43.200Z,1.14
2017-12-11T05:57:43.216Z,1.16
2017-12-11T05:58:43.238Z,1.18
2017-12-11T05:59:43.239Z,1.29
2017-12-11T06:00:43.269Z,1.22
2017-12-11T06:01:43.264Z,1.19
2017-12-11T06:02:43.277Z,1.18
2017-12-11T06:03:43.288Z,1.14
2017-12-11T06:04:43.303Z,1.16
2017-12-11T06:05:43.319Z,1.15
2017-12-11T06:06:43.366Z,1.24
2017-12-11T06:07:43.341Z,1.25
2017-12-11T06:08:43.351Z,1.26
2017-12-11T06:09:43.366Z,1.25
2017-12-11T06:10:43.380Z,1.19
2017-12-11T06:11:43.394Z,1.25
2017-12-11T06:12:43.404Z,1.28
2017-12-11T06:13:43.413Z,1.28
2017-12-11T06:14:43.430Z,1.25
2017-12-11T06:15:43.442Z,1.29
2017-12-11T06:16:43.450Z,1.14
2017-12-11T06:17:43.467Z,1.28
2017-12-11T06:18:43.481Z,1.24
2017-12-11T06:19:43.510Z,1.25
2017-12-11T06:20:43.503Z,1.26
2017-12-11T06:21:43.519Z,1.24
2017-12-11T06:22:43.531Z,1.28
2017-12-11T06:23:43.550Z,1.28
2017-12-11T06:24:43.572Z,1.32
2017-12-11T06:25:43.572Z,1.40
2017-12-11T06:26:43.583Z,1.33
2017-12-11T06:27:43.597Z,1.33
2017-12-11T06:28:43.605Z,1.33
2017-12-11T06:29:43.642Z,1.32
2017-12-11T06:30:43.631Z,1.33
2017-12-11T06:31:43.645Z,1.44
2017-12-11T06:32:43.661Z,1.43
2017-12-11T06:33:43.670Z,1.37
2017-12-11T06:34:43.680Z,1.36
2017-12-11T06:35:43.696Z,1.32
2017-12-11T06:36:43.708Z,1.33
2017-12-11T06:37:43.719Z,1.32
2017-12-11T06:38:43.733Z,1.34
2017-12-11T06:39:43.742Z,1.33
2017-12-11T06:40:43.760Z,1.37
2017-12-11T06:41:43.798Z,1.40
2017-12-11T06:42:43.786Z,1.22
2017-12-11T06:43:43.797Z,1.29
2017-12-11T06:44:43.810Z,1.37
2017-12-11T06:45:43.821Z,1.28
2017-12-11T06:46:43.834Z,1.29
2017-12-11T06:47:43.848Z,1.34
2017-12-11T06:48:43.860Z,1.39
2017-12-11T06:49:43.886Z,1.42
2017-12-11T06:50:43.885Z,1.34
2017-12-11T06:51:43.897Z,1.33
2017-12-11T06:52:43.909Z,1.36
2017-12-11T06:53:43.924Z,1.36
2017-12-11T06:54:43.934Z,1.32
2017-12-11T06:55:43.948Z,1.40
2017-12-11T06:56:43.961Z,1.32
2017-12-11T06:57:43.987Z,1.37
2017-12-11T06:58:43.985Z,1.42
2017-12-11T06:59:44.003Z,1.36
2017-12-11T07:00:44.008Z,1.33
2017-12-11T07:01:44.025Z,1.40
2017-12-11T07:02:44.037Z,1.36
2017-12-11T07:03:44.050Z,1.36
2017-12-11T07:04:44.062Z,1.34
2017-12-11T07:05:44.079Z,1.36
2017-12-11T07:06:44.090Z,1.37
2017-12-11T07:07:44.101Z,1.33
2017-12-11T07:08:44.114Z,1.39
2017-12-11T07:09:44.136Z,1.37
2017-12-11T07:10:44.141Z,1.34
2017-12-11T07:11:44.151Z,1.33
2017-12-11T07:12:44.159Z,1.29
2017-12-11T07:13:44.167Z,1.34
2017-12-11T07:14:44.187Z,1.32
2017-12-11T07:15:44.201Z,1.32
2017-12-11T07:16:44.208Z,1.36
2017-12-11T07:17:44.225Z,1.33
2017-12-11T07:18:44.239Z,1.36
2017-12-11T07:19:44.258Z,1.39
2017-12-11T07:20:44.260Z,1.32
2017-12-11T07:21:44.274Z,1.32
2017-12-11T07:22:44.286Z,1.40
2017-12-11T07:23:44.301Z,1.37
2017-12-11T07:24:44.317Z,1.33
2017-12-11T07:25:44.323Z,1.34
2017-12-11T07:26:44.336Z,1.34
2017-12-11T07:27:44.350Z,1.36
2017-12-11T07:28:44.363Z,1.33
2017-12-11T07:29:44.375Z,1.32
2017-12-11T07:30:44.388Z,1.36
2017-12-11T07:31:44.400Z,1.40
2017-12-11T07:32:44.412Z,1.47
2017-12-11T07:33:44.423Z,1.42
2017-12-11T07:34:44.439Z,1.44
2017-12-11T07:35:44.449Z,1.54
2017-12-11T07:36:44.464Z,1.47
2017-12-11T07:37:44.476Z,1.40
2017-12-11T07:38:44.491Z,1.40
2017-12-11T07:39:44.503Z,1.47
2017-12-11T07:40:44.513Z,1.34
2017-12-11T07:41:44.545Z,1.43
2017-12-11T07:42:44.539Z,1.52
2017-12-11T07:43:44.581Z,1.46
2017-12-11T07:44:44.562Z,1.54
2017-12-11T07:45:44.572Z,1.51
2017-12-11T07:46:44.590Z,1.54
2017-12-11T07:47:44.599Z,1.60
2017-12-11T07:48:44.638Z,1.50
2017-12-11T07:49:44.618Z,1.58
2017-12-11T07:50:44.640Z,1.51
2017-12-11T07:51:44.650Z,1.54
2017-12-11T07:52:44.662Z,1.52
2017-12-11T07:53:44.675Z,1.51
2017-12-11T07:54:44.688Z,1.52
2017-12-11T07:55:44.702Z,1.57
2017-12-11T07:56:44.718Z,1.50
2017-12-11T07:57:44.721Z,1.36
2017-12-11T07:58:44.748Z,1.34
2017-12-11T07:59:44.752Z,1.36
2017-12-11T08:00:44.757Z,1.36
2017-12-11T08:01:44.776Z,1.39
2017-12-11T08:02:44.788Z,1.39
2017-12-11T08:03:44.799Z,1.40
2017-12-11T08:04:44.813Z,1.40
2017-12-11T08:05:44.823Z,1.42
2017-12-11T08:06:44.865Z,1.34
2017-12-11T08:07:44.849Z,1.37
2017-12-11T08:08:44.864Z,1.34
2017-12-11T08:09:44.898Z,1.36
2017-12-11T08:10:44.881Z,1.34
2017-12-11T08:11:44.930Z,1.32
2017-12-11T08:12:44.913Z,1.28
2017-12-11T08:13:44.924Z,1.26
2017-12-11T08:14:44.936Z,1.32
2017-12-11T08:15:44.951Z,1.32
2017-12-11T08:16:44.963Z,1.37
2017-12-11T08:17:44.973Z,1.28
2017-12-11T08:18:45.034Z,1.21
2017-12-11T08:19:45.016Z,1.32
2017-12-11T08:20:45.010Z,1.12
2017-12-11T08:21:45.021Z,1.16
2017-12-11T08:22:45.047Z,1.26
2017-12-11T08:23:45.074Z,1.29
2017-12-11T08:24:45.059Z,1.33
2017-12-11T08:25:45.073Z,1.24
2017-12-11T08:26:45.086Z,1.28
2017-12-11T08:27:45.095Z,1.32
2017-12-11T08:28:45.108Z,1.36
2017-12-11T08:29:45.125Z,1.37
2017-12-11T08:30:45.185Z,1.34
2017-12-11T08:31:45.151Z,1.36
2017-12-11T08:32:45.157Z,1.32
2017-12-11T08:33:45.169Z,1.33
2017-12-11T08:34:45.179Z,1.29
2017-12-11T08:35:45.200Z,1.36
2017-12-11T08:36:45.235Z,1.34
2017-12-11T08:37:45.220Z,1.29
2017-12-11T08:38:45.239Z,1.26
2017-12-11T08:39:45.245Z,1.33
2017-12-11T08:40:45.258Z,1.19
2017-12-11T08:41:45.268Z,1.21
2017-12-11T08:42:45.282Z,1.29
2017-12-11T08:43:45.296Z,1.28
2017-12-11T08:44:45.307Z,1.32
2017-12-11T08:45:45.317Z,1.32
2017-12-11T08:46:45.328Z,1.36
2017-12-11T08:47:45.349Z,1.36
2017-12-11T08:48:45.357Z,1.28
2017-12-11T08:49:45.369Z,1.22
2017-12-11T08:50:45.380Z,1.25
2017-12-11T08:51:45.408Z,1.26
2017-12-11T08:52:45.408Z,1.33
2017-12-11T08:53:45.421Z,1.33
2017-12-11T08:54:45.430Z,1.25
2017-12-11T08:55:45.445Z,1.29
2017-12-11T08:56:45.458Z,1.25
2017-12-11T08:57:45.469Z,1.24
2017-12-11T08:58:45.481Z,1.18
2017-12-11T08:59:45.494Z,1.19
2017-12-11T09:00:45.503Z,1.32
2017-12-11T09:01:45.517Z,1.24
2017-12-11T09:02:45.528Z,1.18
2017-12-11T09:03:45.540Z,1.18
2017-12-11T09:04:45.555Z,1.18
2017-12-11T09:05:45.567Z,1.18
2017-12-11T09:06:45.579Z,1.21
2017-12-11T09:07:45.593Z,1.25
2017-12-11T09:08:45.603Z,1.15
2017-12-11T09:09:45.623Z,1.16
2017-12-11T09:10:45.631Z,1.12
2017-12-11T09:11:45.640Z,1.15
2017-12-11T09:12:45.648Z,1.15
2017-12-11T09:13:45.666Z,1.03
2017-12-11T09:14:45.677Z,1.12
2017-12-11T09:15:45.688Z,1.07
2017-12-11T09:16:45.703Z,1.08
2017-12-11T09:17:45.716Z,1.14
2017-12-11T09:18:45.728Z,1.18
2017-12-11T09:19:45.741Z,1.10
2017-12-11T09:20:45.754Z,1.19
2017-12-11T09:21:45.768Z,1.14
2017-12-11T09:22:45.776Z,1.14
2017-12-11T09:23:45.975Z,1.15
2017-12-11T09:24:45.799Z,1.18
2017-12-11T09:25:45.812Z,1.14
2017-12-11T09:26:45.918Z,1.14
2017-12-11T09:27:45.858Z,1.22
2017-12-11T09:28:45.852Z,1.25
2017-12-11T09:29:45.862Z,1.22
2017-12-11T09:30:45.875Z,1.16
2017-12-11T09:31:45.890Z,1.24
2017-12-11T09:32:45.897Z,1.21
2017-12-11T09:33:45.910Z,1.18
2017-12-11T09:34:45.923Z,1.12
2017-12-11T09:35:45.937Z,1.07
2017-12-11T09:36:45.952Z,1.16
2017-12-11T09:37:45.959Z,1.12
2017-12-11T09:38:45.971Z,1.18
2017-12-11T09:39:45.984Z,1.12
2017-12-11T09:40:45.991Z,1.24
2017-12-11T09:41:46.008Z,1.18
2017-12-11T09:42:46.023Z,1.15
2017-12-11T09:43:46.026Z,1.21
2017-12-11T09:44:46.044Z,1.12
2017-12-11T09:45:46.060Z,1.03
2017-12-11T09:46:46.072Z,1.16
2017-12-11T09:47:46.098Z,1.16
2017-12-11T09:48:46.094Z,1.03
2017-12-11T09:49:46.107Z,0.98
2017-12-11T09:50:46.120Z,1.14
2017-12-11T09:51:46.134Z,1.19
2017-12-11T09:52:46.144Z,1.19
2017-12-11T09:53:46.155Z,1.24
2017-12-11T09:54:46.168Z,1.16
2017-12-11T09:55:46.181Z,1.19
2017-12-11T09:56:46.197Z,1.10
2017-12-11T09:57:46.202Z,1.21
2017-12-11T09:58:46.217Z,1.18
2017-12-11T09:59:46.231Z,1.24
2017-12-11T10:00:46.238Z,1.12
2017-12-11T10:01:46.260Z,1.16
2017-12-11T10:02:46.270Z,1.18
2017-12-11T10:03:46.281Z,1.06
2017-12-11T10:04:46.309Z,1.06
2017-12-11T10:05:46.304Z,1.14
2017-12-11T10:06:46.317Z,1.16
2017-12-11T10:07:46.329Z,1.16
2017-12-11T10:08:46.338Z,1.16
2017-12-11T10:09:46.356Z,1.14
2017-12-11T10:10:46.368Z,1.18
2017-12-11T10:11:46.377Z,1.16
2017-12-11T10:12:46.390Z,1.14
2017-12-11T10:13:46.402Z,1.08
2017-12-11T10:14:46.419Z,1.03
2017-12-11T10:15:46.428Z,1.06
2017-12-11T10:16:46.483Z,1.06
2017-12-11T10:17:46.457Z,1.06
2017-12-11T10:18:46.467Z,1.06
2017-12-11T10:19:46.476Z,1.08
2017-12-11T10:20:46.503Z,1.04
2017-12-11T10:21:46.498Z,1.06
2017-12-11T10:22:46.511Z,0.98
2017-12-11T10:23:46.525Z,1.08
2017-12-11T10:24:46.537Z,1.07
2017-12-11T10:25:46.549Z,1.15
2017-12-11T10:26:46.562Z,1.14
2017-12-11T10:27:46.578Z,1.04
2017-12-11T10:28:46.588Z,1.15
2017-12-11T10:29:46.597Z,1.06
2017-12-11T10:30:46.666Z,1.01
2017-12-11T10:31:46.622Z,1.03
2017-12-11T10:32:46.645Z,1.06
2017-12-11T10:33:46.650Z,1.04
2017-12-11T10:34:46.660Z,0.96
2017-12-11T10:35:46.690Z,1.06
2017-12-11T10:36:46.686Z,1.01
2017-12-11T10:37:46.696Z,1.01
2017-12-11T10:38:46.707Z,1.04
2017-12-11T10:39:46.717Z,1.15
2017-12-11T10:40:46.732Z,1.15
2017-12-11T10:41:46.748Z,1.07
2017-12-11T10:42:46.757Z,1.08
2017-12-11T10:43:46.770Z,1.06
2017-12-11T10:44:46.779Z,1.06
2017-12-11T10:45:46.803Z,1.01
2017-12-11T10:46:46.805Z,1.00
2017-12-11T10:47:46.818Z,1.00
2017-12-11T10:48:46.826Z,1.06
2017-12-11T10:49:46.841Z,1.01
2017-12-11T10:50:46.853Z,1.01
2017-12-11T10:51:46.865Z,1.06
2017-12-11T10:52:46.880Z,1.03
2017-12-11T10:53:46.887Z,1.06
2017-12-11T10:54:46.901Z,1.12
2017-12-11T10:55:46.980Z,1.15
2017-12-11T10:56:46.926Z,1.15
2017-12-11T10:57:46.997Z,1.06
2017-12-11T10:58:46.986Z,1.14
2017-12-11T10:59:46.983Z,1.14
2017-12-11T11:00:46.970Z,1.16
2017-12-11T11:01:47.038Z,1.10
2017-12-11T11:02:47.003Z,1.18
2017-12-11T11:03:47.079Z,1.16
2017-12-11T11:04:47.066Z,1.24
2017-12-11T11:05:47.088Z,1.16
2017-12-11T11:06:47.049Z,1.29
2017-12-11T11:07:47.106Z,1.25
2017-12-11T11:08:47.129Z,1.19
2017-12-11T11:09:47.086Z,1.34
2017-12-11T11:10:47.123Z,1.34
2017-12-11T11:11:47.121Z,1.43
2017-12-11T11:12:47.121Z,1.43
2017-12-11T11:13:47.176Z,1.34
2017-12-11T11:14:47.167Z,1.36
2017-12-11T11:15:47.164Z,1.32
2017-12-11T11:16:47.173Z,1.36
2017-12-11T11:17:47.198Z,1.42
2017-12-11T11:18:47.190Z,1.32
2017-12-11T11:19:47.262Z,1.37
2017-12-11T11:20:47.278Z,1.42
2017-12-11T11:21:47.259Z,1.47
2017-12-11T11:22:47.255Z,1.33
2017-12-11T11:23:47.258Z,1.44
2017-12-11T11:24:47.323Z,1.43
2017-12-11T11:25:47.282Z,1.52
2017-12-11T11:26:47.295Z,1.55
2017-12-11T11:27:47.310Z,1.57
2017-12-11T11:28:47.327Z,1.55
2017-12-11T11:29:47.338Z,1.51
2017-12-11T11:30:47.344Z,1.54
2017-12-11T11:31:47.352Z,1.55
2017-12-11T11:32:47.420Z,1.50
2017-12-11T11:33:47.388Z,1.54
2017-12-11T11:34:47.454Z,1.61
2017-12-11T11:35:47.414Z,1.60
2017-12-11T11:36:47.439Z,1.52
2017-12-11T11:37:47.653Z,1.50
2017-12-11T11:38:47.478Z,1.55
2017-12-11T11:39:47.476Z,1.44
2017-12-11T11:40:47.520Z,1.51
2017-12-11T11:41:47.525Z,1.55
2017-12-11T11:42:47.530Z,1.44
2017-12-11T11:43:47.507Z,1.51
2017-12-11T11:44:47.530Z,1.51
2017-12-11T11:45:47.530Z,1.52
2017-12-11T11:46:47.543Z,1.54
2017-12-11T11:47:47.571Z,1.55
2017-12-11T11:48:47.611Z,1.50
2017-12-11T11:49:47.585Z,1.47
2017-12-11T11:50:47.591Z,1.55
2017-12-11T11:51:47.603Z,1.52
2017-12-11T11:52:47.619Z,1.69
2017-12-11T11:53:47.633Z,1.64
2017-12-11T11:54:47.639Z,1.57
2017-12-11T11:55:47.676Z,1.55
2017-12-11T11:56:47.684Z,1.64
2017-12-11T11:57:47.679Z,1.60
2017-12-11T11:58:47.728Z,1.54
2017-12-11T11:59:47.710Z,1.54
2017-12-11T12:00:47.746Z,1.52
2017-12-11T12:01:47.729Z,1.55
2017-12-11T12:02:47.749Z,1.51
2017-12-11T12:03:47.858Z,1.52
2017-12-11T12:04:47.763Z,1.54
2017-12-11T12:05:47.778Z,1.50
2017-12-11T12:06:47.790Z,1.51
2017-12-11T12:07:47.803Z,1.44
2017-12-11T12:08:47.818Z,1.34
2017-12-11T12:09:47.828Z,1.40
2017-12-11T12:10:47.843Z,1.43
2017-12-11T12:11:47.855Z,1.37
2017-12-11T12:12:47.862Z,1.33
2017-12-11T12:13:47.878Z,1.40
2017-12-11T12:14:47.895Z,1.44
2017-12-11T12:15:47.921Z,1.42
2017-12-11T12:16:47.919Z,1.37
2017-12-11T12:17:47.972Z,1.36
2017-12-11T12:18:47.946Z,1.36
2017-12-11T12:19:47.954Z,1.40
2017-12-11T12:20:47.965Z,1.32
2017-12-11T12:21:47.976Z,1.36
2017-12-11T12:22:47.990Z,1.39
2017-12-11T12:23:48.004Z,1.36
2017-12-11T12:24:48.013Z,1.40
2017-12-11T12:25:48.025Z,1.43
2017-12-11T12:26:48.040Z,1.40
2017-12-11T12:27:48.052Z,1.36
2017-12-11T12:28:48.068Z,1.43
2017-12-11T12:29:48.077Z,1.43
2017-12-11T12:30:48.094Z,1.43
2017-12-11T12:31:48.100Z,1.40
2017-12-11T12:32:48.114Z,1.33
2017-12-11T12:33:48.132Z,1.44
2017-12-11T12:34:48.143Z,1.44
2017-12-11T12:35:48.155Z,1.52
2017-12-11T12:36:48.165Z,1.51
2017-12-11T12:37:48.176Z,1.42
2017-12-11T12:38:48.189Z,1.42
2017-12-11T12:39:48.205Z,1.54
2017-12-11T12:40:48.228Z,1.54
2017-12-11T12:41:48.226Z,1.61
2017-12-11T12:42:48.243Z,1.64
2017-12-11T12:43:48.250Z,1.51
2017-12-11T12:44:48.263Z,1.51
2017-12-11T12:45:48.274Z,1.58
2017-12-11T12:46:48.288Z,1.60
2017-12-11T12:47:48.300Z,1.54
2017-12-11T12:48:48.312Z,1.50
2017-12-11T12:49:48.324Z,1.54
2017-12-11T12:50:48.340Z,1.54
2017-12-11T12:51:48.354Z,1.51
2017-12-11T12:52:48.363Z,1.52
2017-12-11T12:53:48.375Z,1.55
2017-12-11T12:54:48.387Z,1.54
2017-12-11T12:55:48.398Z,1.42
2017-12-11T12:56:48.406Z,1.44
2017-12-11T12:57:48.425Z,1.54
2017-12-11T12:58:48.446Z,1.50
2017-12-11T12:59:48.449Z,1.51
2017-12-11T13:00:48.462Z,1.54
2017-12-11T13:01:48.475Z,1.68
2017-12-11T13:02:48.486Z,1.52
2017-12-11T13:03:48.499Z,1.55
2017-12-11T13:04:48.511Z,1.52
2017-12-11T13:05:48.523Z,1.61
2017-12-11T13:06:48.539Z,1.61
2017-12-11T13:07:48.548Z,1.65
2017-12-11T13:08:48.560Z,1.57
2017-12-11T13:09:48.575Z,1.57
2017-12-11T13:10:48.584Z,1.65
2017-12-11T13:11:48.600Z,1.50
2017-12-11T13:12:48.610Z,1.58
2017-12-11T13:13:48.623Z,1.64
2017-12-11T13:14:48.635Z,1.64
2017-12-11T13:15:48.650Z,1.60
2017-12-11T13:16:48.663Z,1.55
2017-12-11T13:17:48.671Z,1.61
2017-12-11T13:18:48.687Z,1.58